sensor_id;sensor_type;location;lat;lon;timestamp;P1;durP1;ratioP1;P2;durP2;ratioP2
75167;SDS011;63748;48.088;11.476;2023-04-25T00:02:26;1.40;;;1.00;;
75167;SDS011;63748;48.088;11.476;2023-04-25T00:04:53;4.15;;;1.50;;
75167;SDS011;63748;48.088;11.476;2023-04-25T00:07:23;3.95;;;1.30;;
75167;SDS011;63748;48.088;11.476;2023-04-25T00:09:50;1.70;;;1.48;;
75167;SDS011;63748;48.088;11.476;2023-04-25T00:12:16;2.47;;;1.20;;
75167;SDS011;63748;48.088;11.476;2023-04-25T00:14:42;2.72;;;1.42;;
75167;SDS011;63748;48.088;11.476;2023-04-25T00:17:10;2.33;;;1.10;;
75167;SDS011;63748;48.088;11.476;2023-04-25T00:19:36;4.10;;;1.60;;
75167;SDS011;63748;48.088;11.476;2023-04-25T00:22:02;2.03;;;1.45;;
75167;SDS011;63748;48.088;11.476;2023-04-25T00:24:30;2.83;;;1.40;;
75167;SDS011;63748;48.088;11.476;2023-04-25T00:26:56;2.28;;;1.25;;
75167;SDS011;63748;48.088;11.476;2023-04-25T00:29:22;1.90;;;1.00;;
75167;SDS011;63748;48.088;11.476;2023-04-25T00:31:48;1.67;;;1.30;;
75167;SDS011;63748;48.088;11.476;2023-04-25T00:34:14;4.25;;;1.40;;
75167;SDS011;63748;48.088;11.476;2023-04-25T00:36:40;3.45;;;1.40;;
75167;SDS011;63748;48.088;11.476;2023-04-25T00:39:06;4.13;;;1.27;;
75167;SDS011;63748;48.088;11.476;2023-04-25T00:41:33;2.30;;;1.20;;
75167;SDS011;63748;48.088;11.476;2023-04-25T00:43:59;3.42;;;1.08;;
75167;SDS011;63748;48.088;11.476;2023-04-25T00:46:26;2.50;;;1.35;;
75167;SDS011;63748;48.088;11.476;2023-04-25T00:48:52;2.75;;;1.25;;
75167;SDS011;63748;48.088;11.476;2023-04-25T00:51:21;1.67;;;1.23;;
75167;SDS011;63748;48.088;11.476;2023-04-25T00:53:48;2.47;;;1.30;;
75167;SDS011;63748;48.088;11.476;2023-04-25T00:56:15;3.33;;;1.40;;
75167;SDS011;63748;48.088;11.476;2023-04-25T00:58:42;1.38;;;1.05;;
75167;SDS011;63748;48.088;11.476;2023-04-25T01:01:08;1.58;;;1.13;;
75167;SDS011;63748;48.088;11.476;2023-04-25T01:03:34;3.45;;;1.50;;
75167;SDS011;63748;48.088;11.476;2023-04-25T01:06:06;2.10;;;1.40;;
75167;SDS011;63748;48.088;11.476;2023-04-25T01:08:32;2.55;;;1.70;;
75167;SDS011;63748;48.088;11.476;2023-04-25T01:11:00;2.20;;;1.15;;
75167;SDS011;63748;48.088;11.476;2023-04-25T01:13:26;3.00;;;1.40;;
75167;SDS011;63748;48.088;11.476;2023-04-25T01:15:52;1.65;;;1.15;;
75167;SDS011;63748;48.088;11.476;2023-04-25T01:18:18;1.30;;;1.20;;
75167;SDS011;63748;48.088;11.476;2023-04-25T01:20:45;1.73;;;1.20;;
75167;SDS011;63748;48.088;11.476;2023-04-25T01:23:11;3.70;;;1.63;;
75167;SDS011;63748;48.088;11.476;2023-04-25T01:25:38;4.57;;;1.60;;
75167;SDS011;63748;48.088;11.476;2023-04-25T01:28:04;1.73;;;1.23;;
75167;SDS011;63748;48.088;11.476;2023-04-25T01:30:30;1.63;;;1.30;;
75167;SDS011;63748;48.088;11.476;2023-04-25T01:32:57;2.83;;;1.40;;
75167;SDS011;63748;48.088;11.476;2023-04-25T01:35:23;2.08;;;1.10;;
75167;SDS011;63748;48.088;11.476;2023-04-25T01:37:50;5.07;;;1.42;;
75167;SDS011;63748;48.088;11.476;2023-04-25T01:40:16;2.50;;;1.48;;
75167;SDS011;63748;48.088;11.476;2023-04-25T01:42:44;2.35;;;1.40;;
75167;SDS011;63748;48.088;11.476;2023-04-25T01:45:10;1.98;;;1.17;;
75167;SDS011;63748;48.088;11.476;2023-04-25T01:47:38;2.47;;;1.60;;
75167;SDS011;63748;48.088;11.476;2023-04-25T01:50:06;1.65;;;1.23;;
75167;SDS011;63748;48.088;11.476;2023-04-25T01:52:33;1.48;;;1.02;;
75167;SDS011;63748;48.088;11.476;2023-04-25T01:55:02;2.38;;;1.70;;
75167;SDS011;63748;48.088;11.476;2023-04-25T01:57:28;2.55;;;1.50;;
75167;SDS011;63748;48.088;11.476;2023-04-25T01:59:57;1.77;;;1.48;;
75167;SDS011;63748;48.088;11.476;2023-04-25T02:02:24;1.83;;;1.25;;
75167;SDS011;63748;48.088;11.476;2023-04-25T02:04:51;2.03;;;1.30;;
75167;SDS011;63748;48.088;11.476;2023-04-25T02:07:17;2.28;;;1.50;;
75167;SDS011;63748;48.088;11.476;2023-04-25T02:09:43;2.08;;;1.25;;
75167;SDS011;63748;48.088;11.476;2023-04-25T02:12:09;3.58;;;1.33;;
75167;SDS011;63748;48.088;11.476;2023-04-25T02:14:36;2.58;;;1.38;;
75167;SDS011;63748;48.088;11.476;2023-04-25T02:17:02;1.85;;;1.38;;
75167;SDS011;63748;48.088;11.476;2023-04-25T02:19:28;2.03;;;1.27;;
75167;SDS011;63748;48.088;11.476;2023-04-25T02:21:54;3.47;;;1.35;;
75167;SDS011;63748;48.088;11.476;2023-04-25T02:24:22;1.92;;;1.20;;
75167;SDS011;63748;48.088;11.476;2023-04-25T02:26:48;2.92;;;1.48;;
75167;SDS011;63748;48.088;11.476;2023-04-25T02:29:14;2.83;;;1.30;;
75167;SDS011;63748;48.088;11.476;2023-04-25T02:31:40;2.72;;;1.55;;
75167;SDS011;63748;48.088;11.476;2023-04-25T02:34:07;2.35;;;1.30;;
75167;SDS011;63748;48.088;11.476;2023-04-25T02:36:33;2.67;;;1.85;;
75167;SDS011;63748;48.088;11.476;2023-04-25T02:39:00;2.40;;;1.67;;
75167;SDS011;63748;48.088;11.476;2023-04-25T02:41:27;3.53;;;1.83;;
75167;SDS011;63748;48.088;11.476;2023-04-25T02:43:53;2.33;;;1.48;;
75167;SDS011;63748;48.088;11.476;2023-04-25T02:46:19;3.33;;;1.45;;
75167;SDS011;63748;48.088;11.476;2023-04-25T02:48:46;3.67;;;1.20;;
75167;SDS011;63748;48.088;11.476;2023-04-25T02:51:12;3.08;;;1.60;;
75167;SDS011;63748;48.088;11.476;2023-04-25T02:53:38;2.75;;;1.65;;
75167;SDS011;63748;48.088;11.476;2023-04-25T02:56:05;3.20;;;1.63;;
75167;SDS011;63748;48.088;11.476;2023-04-25T02:58:31;3.90;;;1.90;;
75167;SDS011;63748;48.088;11.476;2023-04-25T03:00:57;4.05;;;1.70;;
75167;SDS011;63748;48.088;11.476;2023-04-25T03:03:23;4.55;;;1.55;;
75167;SDS011;63748;48.088;11.476;2023-04-25T03:05:49;4.95;;;1.58;;
75167;SDS011;63748;48.088;11.476;2023-04-25T03:08:16;2.88;;;1.40;;
75167;SDS011;63748;48.088;11.476;2023-04-25T03:10:42;1.67;;;1.25;;
75167;SDS011;63748;48.088;11.476;2023-04-25T03:13:08;1.55;;;1.10;;
75167;SDS011;63748;48.088;11.476;2023-04-25T03:15:35;2.10;;;1.20;;
75167;SDS011;63748;48.088;11.476;2023-04-25T03:18:01;2.45;;;1.15;;
75167;SDS011;63748;48.088;11.476;2023-04-25T03:20:27;3.30;;;1.55;;
75167;SDS011;63748;48.088;11.476;2023-04-25T03:22:53;1.52;;;1.27;;
75167;SDS011;63748;48.088;11.476;2023-04-25T03:25:19;1.60;;;1.27;;
75167;SDS011;63748;48.088;11.476;2023-04-25T03:27:46;3.92;;;1.45;;
75167;SDS011;63748;48.088;11.476;2023-04-25T03:30:12;3.33;;;1.30;;
75167;SDS011;63748;48.088;11.476;2023-04-25T03:32:38;3.22;;;1.40;;
75167;SDS011;63748;48.088;11.476;2023-04-25T03:35:04;2.92;;;1.30;;
75167;SDS011;63748;48.088;11.476;2023-04-25T03:37:30;5.43;;;1.27;;
75167;SDS011;63748;48.088;11.476;2023-04-25T03:39:56;1.38;;;1.08;;
75167;SDS011;63748;48.088;11.476;2023-04-25T03:42:22;1.55;;;1.30;;
75167;SDS011;63748;48.088;11.476;2023-04-25T03:44:49;2.42;;;1.20;;
75167;SDS011;63748;48.088;11.476;2023-04-25T03:47:15;4.07;;;1.10;;
75167;SDS011;63748;48.088;11.476;2023-04-25T03:49:41;1.10;;;0.77;;
75167;SDS011;63748;48.088;11.476;2023-04-25T03:52:07;1.80;;;1.10;;
75167;SDS011;63748;48.088;11.476;2023-04-25T03:54:33;1.08;;;0.68;;
75167;SDS011;63748;48.088;11.476;2023-04-25T03:56:59;1.75;;;1.10;;
75167;SDS011;63748;48.088;11.476;2023-04-25T03:59:26;1.30;;;0.98;;
75167;SDS011;63748;48.088;11.476;2023-04-25T04:01:52;2.10;;;1.13;;
75167;SDS011;63748;48.088;11.476;2023-04-25T04:04:18;1.83;;;1.02;;
75167;SDS011;63748;48.088;11.476;2023-04-25T04:06:44;2.15;;;1.17;;
75167;SDS011;63748;48.088;11.476;2023-04-25T04:09:10;2.70;;;1.02;;
75167;SDS011;63748;48.088;11.476;2023-04-25T04:11:37;1.73;;;1.15;;
75167;SDS011;63748;48.088;11.476;2023-04-25T04:14:07;1.73;;;0.90;;
75167;SDS011;63748;48.088;11.476;2023-04-25T04:16:33;1.58;;;1.02;;
75167;SDS011;63748;48.088;11.476;2023-04-25T04:18:59;3.67;;;1.20;;
75167;SDS011;63748;48.088;11.476;2023-04-25T04:21:25;2.83;;;1.38;;
75167;SDS011;63748;48.088;11.476;2023-04-25T04:23:52;2.97;;;1.33;;
75167;SDS011;63748;48.088;11.476;2023-04-25T04:26:19;1.65;;;1.00;;
75167;SDS011;63748;48.088;11.476;2023-04-25T04:28:48;2.35;;;1.02;;
75167;SDS011;63748;48.088;11.476;2023-04-25T04:31:15;2.00;;;1.10;;
75167;SDS011;63748;48.088;11.476;2023-04-25T04:33:44;1.42;;;1.00;;
75167;SDS011;63748;48.088;11.476;2023-04-25T04:36:11;1.60;;;1.05;;
75167;SDS011;63748;48.088;11.476;2023-04-25T04:38:37;2.47;;;1.02;;
75167;SDS011;63748;48.088;11.476;2023-04-25T04:41:03;1.90;;;1.10;;
75167;SDS011;63748;48.088;11.476;2023-04-25T04:43:29;1.42;;;1.13;;
75167;SDS011;63748;48.088;11.476;2023-04-25T04:45:57;1.63;;;0.63;;
75167;SDS011;63748;48.088;11.476;2023-04-25T04:48:23;1.65;;;1.00;;
75167;SDS011;63748;48.088;11.476;2023-04-25T04:50:49;1.55;;;0.82;;
75167;SDS011;63748;48.088;11.476;2023-04-25T04:53:15;2.17;;;1.45;;
75167;SDS011;63748;48.088;11.476;2023-04-25T04:55:41;1.45;;;0.90;;
75167;SDS011;63748;48.088;11.476;2023-04-25T04:58:08;2.55;;;0.88;;
75167;SDS011;63748;48.088;11.476;2023-04-25T05:00:34;2.50;;;1.08;;
75167;SDS011;63748;48.088;11.476;2023-04-25T05:03:00;2.45;;;1.23;;
75167;SDS011;63748;48.088;11.476;2023-04-25T05:05:26;2.50;;;1.48;;
75167;SDS011;63748;48.088;11.476;2023-04-25T05:07:52;2.55;;;1.55;;
75167;SDS011;63748;48.088;11.476;2023-04-25T05:10:18;2.97;;;1.85;;
75167;SDS011;63748;48.088;11.476;2023-04-25T05:12:45;4.47;;;2.55;;
75167;SDS011;63748;48.088;11.476;2023-04-25T05:15:11;2.08;;;1.30;;
75167;SDS011;63748;48.088;11.476;2023-04-25T05:17:37;1.77;;;1.15;;
75167;SDS011;63748;48.088;11.476;2023-04-25T05:20:04;3.08;;;1.67;;
75167;SDS011;63748;48.088;11.476;2023-04-25T05:22:31;2.90;;;1.58;;
75167;SDS011;63748;48.088;11.476;2023-04-25T05:24:57;2.63;;;1.33;;
75167;SDS011;63748;48.088;11.476;2023-04-25T05:27:23;4.72;;;1.08;;
75167;SDS011;63748;48.088;11.476;2023-04-25T05:29:49;2.08;;;1.38;;
75167;SDS011;63748;48.088;11.476;2023-04-25T05:32:16;2.75;;;1.27;;
75167;SDS011;63748;48.088;11.476;2023-04-25T05:34:42;1.95;;;1.00;;
75167;SDS011;63748;48.088;11.476;2023-04-25T05:37:08;1.77;;;1.35;;
75167;SDS011;63748;48.088;11.476;2023-04-25T05:39:34;5.72;;;1.65;;
75167;SDS011;63748;48.088;11.476;2023-04-25T05:42:01;2.10;;;1.70;;
75167;SDS011;63748;48.088;11.476;2023-04-25T05:44:28;4.35;;;1.40;;
75167;SDS011;63748;48.088;11.476;2023-04-25T05:46:54;3.17;;;1.50;;
75167;SDS011;63748;48.088;11.476;2023-04-25T05:49:20;3.88;;;1.70;;
75167;SDS011;63748;48.088;11.476;2023-04-25T05:51:46;5.25;;;1.90;;
75167;SDS011;63748;48.088;11.476;2023-04-25T05:54:12;3.47;;;1.60;;
75167;SDS011;63748;48.088;11.476;2023-04-25T05:56:39;4.18;;;1.50;;
75167;SDS011;63748;48.088;11.476;2023-04-25T05:59:05;3.15;;;1.67;;
75167;SDS011;63748;48.088;11.476;2023-04-25T06:01:31;2.30;;;1.27;;
75167;SDS011;63748;48.088;11.476;2023-04-25T06:03:57;3.90;;;1.40;;
75167;SDS011;63748;48.088;11.476;2023-04-25T06:06:23;2.60;;;1.25;;
75167;SDS011;63748;48.088;11.476;2023-04-25T06:08:49;6.97;;;1.90;;
75167;SDS011;63748;48.088;11.476;2023-04-25T06:11:15;5.05;;;1.63;;
75167;SDS011;63748;48.088;11.476;2023-04-25T06:13:41;2.65;;;1.52;;
75167;SDS011;63748;48.088;11.476;2023-04-25T06:16:07;3.42;;;1.55;;
75167;SDS011;63748;48.088;11.476;2023-04-25T06:18:34;2.45;;;1.70;;
75167;SDS011;63748;48.088;11.476;2023-04-25T06:21:00;4.47;;;1.65;;
75167;SDS011;63748;48.088;11.476;2023-04-25T06:23:26;2.05;;;1.60;;
75167;SDS011;63748;48.088;11.476;2023-04-25T06:25:52;3.53;;;1.73;;
75167;SDS011;63748;48.088;11.476;2023-04-25T06:28:18;2.22;;;1.73;;
75167;SDS011;63748;48.088;11.476;2023-04-25T06:30:44;3.28;;;1.80;;
75167;SDS011;63748;48.088;11.476;2023-04-25T06:33:10;3.40;;;1.88;;
75167;SDS011;63748;48.088;11.476;2023-04-25T06:35:36;2.60;;;1.30;;
75167;SDS011;63748;48.088;11.476;2023-04-25T06:38:02;1.88;;;1.48;;
75167;SDS011;63748;48.088;11.476;2023-04-25T06:40:29;2.13;;;1.63;;
75167;SDS011;63748;48.088;11.476;2023-04-25T06:42:55;2.17;;;1.70;;
75167;SDS011;63748;48.088;11.476;2023-04-25T06:45:21;1.52;;;1.15;;
75167;SDS011;63748;48.088;11.476;2023-04-25T06:47:47;2.42;;;1.50;;
75167;SDS011;63748;48.088;11.476;2023-04-25T06:50:13;2.53;;;1.58;;
75167;SDS011;63748;48.088;11.476;2023-04-25T06:52:39;4.15;;;1.60;;
75167;SDS011;63748;48.088;11.476;2023-04-25T06:55:05;2.95;;;1.75;;
75167;SDS011;63748;48.088;11.476;2023-04-25T06:57:31;4.63;;;2.40;;
75167;SDS011;63748;48.088;11.476;2023-04-25T06:59:57;2.92;;;1.60;;
75167;SDS011;63748;48.088;11.476;2023-04-25T07:02:23;2.83;;;1.58;;
75167;SDS011;63748;48.088;11.476;2023-04-25T07:04:49;5.05;;;1.90;;
75167;SDS011;63748;48.088;11.476;2023-04-25T07:07:15;2.35;;;2.15;;
75167;SDS011;63748;48.088;11.476;2023-04-25T07:09:42;3.53;;;1.73;;
75167;SDS011;63748;48.088;11.476;2023-04-25T07:12:08;5.38;;;2.20;;
75167;SDS011;63748;48.088;11.476;2023-04-25T07:14:34;3.72;;;2.15;;
75167;SDS011;63748;48.088;11.476;2023-04-25T07:17:00;2.65;;;2.13;;
75167;SDS011;63748;48.088;11.476;2023-04-25T07:19:26;3.80;;;2.00;;
75167;SDS011;63748;48.088;11.476;2023-04-25T07:21:54;4.05;;;2.17;;
75167;SDS011;63748;48.088;11.476;2023-04-25T07:24:20;3.75;;;1.60;;
75167;SDS011;63748;48.088;11.476;2023-04-25T07:26:46;1.55;;;1.38;;
75167;SDS011;63748;48.088;11.476;2023-04-25T07:29:12;2.25;;;1.40;;
75167;SDS011;63748;48.088;11.476;2023-04-25T07:31:39;3.13;;;1.67;;
75167;SDS011;63748;48.088;11.476;2023-04-25T07:34:05;3.95;;;2.33;;
75167;SDS011;63748;48.088;11.476;2023-04-25T07:36:31;3.45;;;1.65;;
75167;SDS011;63748;48.088;11.476;2023-04-25T07:38:57;3.17;;;2.03;;
75167;SDS011;63748;48.088;11.476;2023-04-25T07:41:23;4.35;;;2.22;;
75167;SDS011;63748;48.088;11.476;2023-04-25T07:43:49;2.60;;;1.85;;
75167;SDS011;63748;48.088;11.476;2023-04-25T07:46:15;5.60;;;2.30;;
75167;SDS011;63748;48.088;11.476;2023-04-25T07:48:41;3.80;;;2.50;;
75167;SDS011;63748;48.088;11.476;2023-04-25T07:51:07;3.92;;;2.22;;
75167;SDS011;63748;48.088;11.476;2023-04-25T07:53:33;3.42;;;2.33;;
75167;SDS011;63748;48.088;11.476;2023-04-25T07:56:00;4.95;;;2.28;;
75167;SDS011;63748;48.088;11.476;2023-04-25T07:58:26;3.70;;;1.83;;
75167;SDS011;63748;48.088;11.476;2023-04-25T08:00:52;3.20;;;2.15;;
75167;SDS011;63748;48.088;11.476;2023-04-25T08:03:18;4.55;;;1.70;;
75167;SDS011;63748;48.088;11.476;2023-04-25T08:05:46;4.15;;;1.60;;
75167;SDS011;63748;48.088;11.476;2023-04-25T08:08:12;2.30;;;1.65;;
75167;SDS011;63748;48.088;11.476;2023-04-25T08:10:38;5.55;;;2.03;;
75167;SDS011;63748;48.088;11.476;2023-04-25T08:13:05;4.93;;;1.67;;
75167;SDS011;63748;48.088;11.476;2023-04-25T08:15:31;3.60;;;1.77;;
75167;SDS011;63748;48.088;11.476;2023-04-25T08:17:57;3.17;;;1.92;;
75167;SDS011;63748;48.088;11.476;2023-04-25T08:20:24;6.10;;;1.98;;
75167;SDS011;63748;48.088;11.476;2023-04-25T08:22:50;3.22;;;1.77;;
75167;SDS011;63748;48.088;11.476;2023-04-25T08:25:16;2.45;;;1.80;;
75167;SDS011;63748;48.088;11.476;2023-04-25T08:27:43;3.33;;;1.88;;
75167;SDS011;63748;48.088;11.476;2023-04-25T08:30:09;2.55;;;1.30;;
75167;SDS011;63748;48.088;11.476;2023-04-25T08:32:35;3.85;;;1.85;;
75167;SDS011;63748;48.088;11.476;2023-04-25T08:35:03;3.38;;;1.77;;
75167;SDS011;63748;48.088;11.476;2023-04-25T08:37:29;2.40;;;1.88;;
75167;SDS011;63748;48.088;11.476;2023-04-25T08:39:55;2.42;;;1.77;;
75167;SDS011;63748;48.088;11.476;2023-04-25T08:42:21;2.17;;;1.30;;
75167;SDS011;63748;48.088;11.476;2023-04-25T08:44:49;2.63;;;1.40;;
75167;SDS011;63748;48.088;11.476;2023-04-25T08:47:17;1.77;;;1.20;;
75167;SDS011;63748;48.088;11.476;2023-04-25T08:52:10;3.45;;;1.55;;
75167;SDS011;63748;48.088;11.476;2023-04-25T08:54:40;3.22;;;1.45;;
75167;SDS011;63748;48.088;11.476;2023-04-25T08:57:08;1.85;;;1.40;;
75167;SDS011;63748;48.088;11.476;2023-04-25T08:59:34;2.92;;;1.42;;
75167;SDS011;63748;48.088;11.476;2023-04-25T09:02:02;1.50;;;1.02;;
75167;SDS011;63748;48.088;11.476;2023-04-25T09:04:31;1.90;;;1.45;;
75167;SDS011;63748;48.088;11.476;2023-04-25T09:06:57;2.05;;;1.33;;
75167;SDS011;63748;48.088;11.476;2023-04-25T09:09:24;3.88;;;1.38;;
75167;SDS011;63748;48.088;11.476;2023-04-25T09:11:50;4.32;;;1.02;;
75167;SDS011;63748;48.088;11.476;2023-04-25T09:17:00;3.38;;;1.50;;
75167;SDS011;63748;48.088;11.476;2023-04-25T09:19:36;3.83;;;1.40;;
75167;SDS011;63748;48.088;11.476;2023-04-25T09:22:05;1.65;;;1.08;;
75167;SDS011;63748;48.088;11.476;2023-04-25T09:24:31;2.25;;;1.10;;
75167;SDS011;63748;48.088;11.476;2023-04-25T09:26:58;1.95;;;1.10;;
75167;SDS011;63748;48.088;11.476;2023-04-25T09:29:30;2.10;;;1.10;;
75167;SDS011;63748;48.088;11.476;2023-04-25T09:32:10;2.72;;;1.20;;
75167;SDS011;63748;48.088;11.476;2023-04-25T09:34:43;2.42;;;1.02;;
75167;SDS011;63748;48.088;11.476;2023-04-25T09:37:10;2.67;;;1.48;;
75167;SDS011;63748;48.088;11.476;2023-04-25T09:39:37;3.22;;;1.27;;
75167;SDS011;63748;48.088;11.476;2023-04-25T09:42:03;1.20;;;0.90;;
75167;SDS011;63748;48.088;11.476;2023-04-25T09:44:30;4.03;;;1.40;;
75167;SDS011;63748;48.088;11.476;2023-04-25T09:46:56;4.15;;;1.20;;
75167;SDS011;63748;48.088;11.476;2023-04-25T09:49:24;2.40;;;1.33;;
75167;SDS011;63748;48.088;11.476;2023-04-25T09:51:58;4.50;;;2.00;;
75167;SDS011;63748;48.088;11.476;2023-04-25T09:54:24;2.10;;;1.33;;
75167;SDS011;63748;48.088;11.476;2023-04-25T09:56:51;1.83;;;1.08;;
75167;SDS011;63748;48.088;11.476;2023-04-25T09:59:21;1.95;;;1.30;;
75167;SDS011;63748;48.088;11.476;2023-04-25T10:01:50;2.55;;;1.10;;
75167;SDS011;63748;48.088;11.476;2023-04-25T10:04:23;3.45;;;1.83;;
75167;SDS011;63748;48.088;11.476;2023-04-25T10:06:51;4.13;;;1.50;;
75167;SDS011;63748;48.088;11.476;2023-04-25T10:09:21;2.90;;;1.25;;
75167;SDS011;63748;48.088;11.476;2023-04-25T10:11:50;2.30;;;0.90;;
75167;SDS011;63748;48.088;11.476;2023-04-25T10:14:16;2.75;;;1.58;;
75167;SDS011;63748;48.088;11.476;2023-04-25T10:16:43;1.92;;;1.17;;
75167;SDS011;63748;48.088;11.476;2023-04-25T10:19:10;2.95;;;1.70;;
75167;SDS011;63748;48.088;11.476;2023-04-25T10:21:43;5.43;;;1.20;;
75167;SDS011;63748;48.088;11.476;2023-04-25T10:24:10;2.53;;;1.17;;
75167;SDS011;63748;48.088;11.476;2023-04-25T10:26:37;1.83;;;0.93;;
75167;SDS011;63748;48.088;11.476;2023-04-25T10:29:03;3.38;;;1.20;;
75167;SDS011;63748;48.088;11.476;2023-04-25T10:31:29;1.17;;;1.05;;
75167;SDS011;63748;48.088;11.476;2023-04-25T10:33:56;2.00;;;0.75;;
75167;SDS011;63748;48.088;11.476;2023-04-25T10:36:22;1.50;;;1.10;;
75167;SDS011;63748;48.088;11.476;2023-04-25T10:38:49;2.22;;;1.00;;
75167;SDS011;63748;48.088;11.476;2023-04-25T10:41:17;2.28;;;0.98;;
75167;SDS011;63748;48.088;11.476;2023-04-25T10:46:21;2.65;;;0.77;;
75167;SDS011;63748;48.088;11.476;2023-04-25T10:48:55;1.38;;;0.68;;
75167;SDS011;63748;48.088;11.476;2023-04-25T10:51:26;2.20;;;1.10;;
75167;SDS011;63748;48.088;11.476;2023-04-25T10:53:57;1.00;;;0.80;;
75167;SDS011;63748;48.088;11.476;2023-04-25T10:56:25;1.65;;;1.20;;
75167;SDS011;63748;48.088;11.476;2023-04-25T10:58:51;1.45;;;0.80;;
75167;SDS011;63748;48.088;11.476;2023-04-25T11:01:20;2.58;;;1.27;;
75167;SDS011;63748;48.088;11.476;2023-04-25T11:03:47;2.17;;;0.82;;
75167;SDS011;63748;48.088;11.476;2023-04-25T11:09:13;1.63;;;1.30;;
75167;SDS011;63748;48.088;11.476;2023-04-25T11:11:39;2.67;;;0.88;;
75167;SDS011;63748;48.088;11.476;2023-04-25T11:14:05;3.22;;;1.20;;
75167;SDS011;63748;48.088;11.476;2023-04-25T11:16:31;1.75;;;0.80;;
75167;SDS011;63748;48.088;11.476;2023-04-25T11:18:58;1.10;;;0.88;;
75167;SDS011;63748;48.088;11.476;2023-04-25T11:21:27;1.23;;;1.08;;
75167;SDS011;63748;48.088;11.476;2023-04-25T11:23:53;1.52;;;0.93;;
75167;SDS011;63748;48.088;11.476;2023-04-25T11:26:19;2.67;;;1.27;;
75167;SDS011;63748;48.088;11.476;2023-04-25T11:28:46;1.38;;;0.77;;
75167;SDS011;63748;48.088;11.476;2023-04-25T11:31:12;3.28;;;0.82;;
75167;SDS011;63748;48.088;11.476;2023-04-25T11:33:38;1.90;;;0.95;;
75167;SDS011;63748;48.088;11.476;2023-04-25T11:36:06;2.63;;;1.30;;
75167;SDS011;63748;48.088;11.476;2023-04-25T11:38:32;1.83;;;1.05;;
75167;SDS011;63748;48.088;11.476;2023-04-25T11:40:58;3.33;;;1.52;;
75167;SDS011;63748;48.088;11.476;2023-04-25T11:43:25;3.40;;;1.40;;
75167;SDS011;63748;48.088;11.476;2023-04-25T11:45:51;3.35;;;1.40;;
75167;SDS011;63748;48.088;11.476;2023-04-25T11:48:18;1.65;;;1.10;;
75167;SDS011;63748;48.088;11.476;2023-04-25T11:50:45;1.08;;;0.98;;
75167;SDS011;63748;48.088;11.476;2023-04-25T11:53:11;1.83;;;0.80;;
75167;SDS011;63748;48.088;11.476;2023-04-25T11:55:38;1.10;;;0.65;;
75167;SDS011;63748;48.088;11.476;2023-04-25T11:58:05;1.15;;;0.85;;
75167;SDS011;63748;48.088;11.476;2023-04-25T12:00:31;0.95;;;0.80;;
75167;SDS011;63748;48.088;11.476;2023-04-25T12:02:58;0.77;;;0.68;;
75167;SDS011;63748;48.088;11.476;2023-04-25T12:05:25;2.30;;;2.03;;
75167;SDS011;63748;48.088;11.476;2023-04-25T12:07:52;1.67;;;1.27;;
75167;SDS011;63748;48.088;11.476;2023-04-25T12:10:18;2.53;;;1.20;;
75167;SDS011;63748;48.088;11.476;2023-04-25T12:12:45;1.90;;;1.42;;
75167;SDS011;63748;48.088;11.476;2023-04-25T12:15:15;2.72;;;1.95;;
75167;SDS011;63748;48.088;11.476;2023-04-25T12:17:48;1.35;;;1.05;;
75167;SDS011;63748;48.088;11.476;2023-04-25T12:20:15;1.80;;;0.65;;
75167;SDS011;63748;48.088;11.476;2023-04-25T12:22:42;2.83;;;0.90;;
75167;SDS011;63748;48.088;11.476;2023-04-25T12:25:10;2.53;;;1.15;;
75167;SDS011;63748;48.088;11.476;2023-04-25T12:27:36;1.95;;;0.90;;
75167;SDS011;63748;48.088;11.476;2023-04-25T12:30:03;1.92;;;1.25;;
75167;SDS011;63748;48.088;11.476;2023-04-25T12:32:29;1.80;;;1.30;;
75167;SDS011;63748;48.088;11.476;2023-04-25T12:34:56;3.05;;;1.30;;
75167;SDS011;63748;48.088;11.476;2023-04-25T12:37:22;5.15;;;2.10;;
75167;SDS011;63748;48.088;11.476;2023-04-25T12:39:48;1.55;;;1.10;;
75167;SDS011;63748;48.088;11.476;2023-04-25T12:42:14;2.40;;;1.23;;
75167;SDS011;63748;48.088;11.476;2023-04-25T12:44:40;0.95;;;0.80;;
75167;SDS011;63748;48.088;11.476;2023-04-25T12:47:06;1.08;;;0.60;;
75167;SDS011;63748;48.088;11.476;2023-04-25T12:49:33;0.47;;;0.47;;
75167;SDS011;63748;48.088;11.476;2023-04-25T12:51:59;2.97;;;1.52;;
75167;SDS011;63748;48.088;11.476;2023-04-25T12:54:25;2.22;;;1.15;;
75167;SDS011;63748;48.088;11.476;2023-04-25T12:56:51;0.65;;;0.65;;
75167;SDS011;63748;48.088;11.476;2023-04-25T12:59:17;0.82;;;0.60;;
75167;SDS011;63748;48.088;11.476;2023-04-25T13:01:45;1.35;;;0.70;;
75167;SDS011;63748;48.088;11.476;2023-04-25T13:04:11;1.73;;;0.90;;
75167;SDS011;63748;48.088;11.476;2023-04-25T13:06:37;1.23;;;0.50;;
75167;SDS011;63748;48.088;11.476;2023-04-25T13:09:03;1.88;;;1.05;;
75167;SDS011;63748;48.088;11.476;2023-04-25T13:11:29;0.82;;;0.50;;
75167;SDS011;63748;48.088;11.476;2023-04-25T13:13:56;2.40;;;0.90;;
75167;SDS011;63748;48.088;11.476;2023-04-25T13:16:22;1.10;;;0.40;;
75167;SDS011;63748;48.088;11.476;2023-04-25T13:18:48;0.90;;;0.50;;
75167;SDS011;63748;48.088;11.476;2023-04-25T13:21:14;0.75;;;0.43;;
75167;SDS011;63748;48.088;11.476;2023-04-25T13:23:40;0.40;;;0.40;;
75167;SDS011;63748;48.088;11.476;2023-04-25T13:26:11;0.90;;;0.50;;
75167;SDS011;63748;48.088;11.476;2023-04-25T13:28:37;0.90;;;0.57;;
75167;SDS011;63748;48.088;11.476;2023-04-25T13:31:05;0.70;;;0.70;;
75167;SDS011;63748;48.088;11.476;2023-04-25T13:33:31;0.80;;;0.60;;
75167;SDS011;63748;48.088;11.476;2023-04-25T13:35:57;1.83;;;0.57;;
75167;SDS011;63748;48.088;11.476;2023-04-25T13:38:24;2.03;;;0.70;;
75167;SDS011;63748;48.088;11.476;2023-04-25T13:40:50;0.50;;;0.50;;
75167;SDS011;63748;48.088;11.476;2023-04-25T13:43:20;0.95;;;0.47;;
75167;SDS011;63748;48.088;11.476;2023-04-25T13:45:49;0.50;;;0.50;;
75167;SDS011;63748;48.088;11.476;2023-04-25T13:48:16;1.05;;;0.63;;
75167;SDS011;63748;48.088;11.476;2023-04-25T13:50:42;1.17;;;0.50;;
75167;SDS011;63748;48.088;11.476;2023-04-25T13:53:08;0.57;;;0.50;;
75167;SDS011;63748;48.088;11.476;2023-04-25T13:55:35;0.70;;;0.70;;
75167;SDS011;63748;48.088;11.476;2023-04-25T13:58:04;0.60;;;0.43;;
75167;SDS011;63748;48.088;11.476;2023-04-25T14:00:33;0.55;;;0.40;;
75167;SDS011;63748;48.088;11.476;2023-04-25T14:02:59;0.47;;;0.47;;
75167;SDS011;63748;48.088;11.476;2023-04-25T14:05:25;0.68;;;0.40;;
75167;SDS011;63748;48.088;11.476;2023-04-25T14:07:51;0.65;;;0.63;;
75167;SDS011;63748;48.088;11.476;2023-04-25T14:10:17;0.95;;;0.75;;
75167;SDS011;63748;48.088;11.476;2023-04-25T14:12:45;0.90;;;0.50;;
75167;SDS011;63748;48.088;11.476;2023-04-25T14:15:11;0.90;;;0.60;;
75167;SDS011;63748;48.088;11.476;2023-04-25T14:17:37;0.82;;;0.43;;
75167;SDS011;63748;48.088;11.476;2023-04-25T14:20:04;0.40;;;0.40;;
75167;SDS011;63748;48.088;11.476;2023-04-25T14:22:30;0.93;;;0.50;;
75167;SDS011;63748;48.088;11.476;2023-04-25T14:24:57;0.75;;;0.70;;
75167;SDS011;63748;48.088;11.476;2023-04-25T14:27:23;0.70;;;0.60;;
75167;SDS011;63748;48.088;11.476;2023-04-25T14:29:49;0.63;;;0.50;;
75167;SDS011;63748;48.088;11.476;2023-04-25T14:32:16;0.50;;;0.50;;
75167;SDS011;63748;48.088;11.476;2023-04-25T14:34:42;1.63;;;0.80;;
75167;SDS011;63748;48.088;11.476;2023-04-25T14:37:08;0.68;;;0.50;;
75167;SDS011;63748;48.088;11.476;2023-04-25T14:39:34;0.50;;;0.50;;
75167;SDS011;63748;48.088;11.476;2023-04-25T14:42:01;0.63;;;0.50;;